sensor_id;sensor_type;location;lat;lon;timestamp;temperature;humidity
24252;DHT22;12380;51.118;4.176;2022-10-14T00:01:11;15.30;99.90
24252;DHT22;12380;51.118;4.176;2022-10-14T00:03:38;15.30;99.90
24252;DHT22;12380;51.118;4.176;2022-10-14T00:06:08;15.30;99.90
24252;DHT22;12380;51.118;4.176;2022-10-14T00:08:37;15.30;99.90
24252;DHT22;12380;51.118;4.176;2022-10-14T00:11:05;15.30;99.90
24252;DHT22;12380;51.118;4.176;2022-10-14T00:13:31;15.30;99.90
24252;DHT22;12380;51.118;4.176;2022-10-14T00:15:57;15.40;99.90
24252;DHT22;12380;51.118;4.176;2022-10-14T00:18:22;15.20;99.90
24252;DHT22;12380;51.118;4.176;2022-10-14T00:20:58;15.00;99.90
24252;DHT22;12380;51.118;4.176;2022-10-14T00:23:25;15.00;99.90
24252;DHT22;12380;51.118;4.176;2022-10-14T00:25:51;15.00;99.90
24252;DHT22;12380;51.118;4.176;2022-10-14T00:28:17;15.00;99.90
24252;DHT22;12380;51.118;4.176;2022-10-14T00:30:56;15.30;99.90
24252;DHT22;12380;51.118;4.176;2022-10-14T00:33:23;15.10;99.90
24252;DHT22;12380;51.118;4.176;2022-10-14T00:35:56;15.30;99.90
24252;DHT22;12380;51.118;4.176;2022-10-14T00:38:25;15.30;99.90
24252;DHT22;12380;51.118;4.176;2022-10-14T00:40:51;15.00;99.90
24252;DHT22;12380;51.118;4.176;2022-10-14T00:43:17;15.00;99.90
24252;DHT22;12380;51.118;4.176;2022-10-14T00:45:44;15.00;99.90
24252;DHT22;12380;51.118;4.176;2022-10-14T00:48:10;15.00;99.90
24252;DHT22;12380;51.118;4.176;2022-10-14T00:50:36;15.00;99.90
24252;DHT22;12380;51.118;4.176;2022-10-14T00:53:03;15.00;99.90
24252;DHT22;12380;51.118;4.176;2022-10-14T00:55:29;14.80;99.90
24252;DHT22;12380;51.118;4.176;2022-10-14T00:58:05;14.70;99.90
24252;DHT22;12380;51.118;4.176;2022-10-14T01:00:34;14.70;99.90
24252;DHT22;12380;51.118;4.176;2022-10-14T01:03:04;14.80;99.90
24252;DHT22;12380;51.118;4.176;2022-10-14T01:06:25;14.80;99.90
24252;DHT22;12380;51.118;4.176;2022-10-14T01:08:48;14.80;99.90
24252;DHT22;12380;51.118;4.176;2022-10-14T01:11:23;14.70;99.90
24252;DHT22;12380;51.118;4.176;2022-10-14T01:14:02;14.70;99.90
24252;DHT22;12380;51.118;4.176;2022-10-14T01:17:05;14.60;99.90
24252;DHT22;12380;51.118;4.176;2022-10-14T01:22:10;14.70;99.90
24252;DHT22;12380;51.118;4.176;2022-10-14T01:32:33;14.90;99.90
24252;DHT22;12380;51.118;4.176;2022-10-14T01:35:11;14.80;99.90
24252;DHT22;12380;51.118;4.176;2022-10-14T01:37:39;14.90;99.90
24252;DHT22;12380;51.118;4.176;2022-10-14T01:40:10;14.80;99.90
24252;DHT22;12380;51.118;4.176;2022-10-14T01:42:37;14.80;99.90
24252;DHT22;12380;51.118;4.176;2022-10-14T01:45:20;14.80;99.90
24252;DHT22;12380;51.118;4.176;2022-10-14T01:47:47;14.80;99.90
24252;DHT22;12380;51.118;4.176;2022-10-14T01:50:20;14.90;99.90
24252;DHT22;12380;51.118;4.176;2022-10-14T01:52:51;14.80;99.90
24252;DHT22;12380;51.118;4.176;2022-10-14T01:55:21;14.80;99.90
24252;DHT22;12380;51.118;4.176;2022-10-14T01:57:48;14.80;99.90
24252;DHT22;12380;51.118;4.176;2022-10-14T02:00:15;14.80;99.90
24252;DHT22;12380;51.118;4.176;2022-10-14T02:02:41;15.00;99.90
24252;DHT22;12380;51.118;4.176;2022-10-14T02:05:09;15.10;99.90
24252;DHT22;12380;51.118;4.176;2022-10-14T02:07:42;15.10;99.90
24252;DHT22;12380;51.118;4.176;2022-10-14T02:10:20;15.10;99.90
24252;DHT22;12380;51.118;4.176;2022-10-14T02:18:04;14.90;99.90
24252;DHT22;12380;51.118;4.176;2022-10-14T02:20:36;14.80;99.90
24252;DHT22;12380;51.118;4.176;2022-10-14T02:23:21;14.90;99.90
24252;DHT22;12380;51.118;4.176;2022-10-14T02:25:48;14.70;99.90
24252;DHT22;12380;51.118;4.176;2022-10-14T02:28:17;14.60;99.90
24252;DHT22;12380;51.118;4.176;2022-10-14T02:30:44;14.50;99.90
24252;DHT22;12380;51.118;4.176;2022-10-14T02:33:13;14.60;99.90
24252;DHT22;12380;51.118;4.176;2022-10-14T02:35:39;14.70;99.90
24252;DHT22;12380;51.118;4.176;2022-10-14T02:38:06;14.70;99.90
24252;DHT22;12380;51.118;4.176;2022-10-14T02:40:36;14.60;99.90
24252;DHT22;12380;51.118;4.176;2022-10-14T02:43:03;14.70;99.90
24252;DHT22;12380;51.118;4.176;2022-10-14T02:45:32;14.60;99.90
24252;DHT22;12380;51.118;4.176;2022-10-14T02:48:00;14.60;99.90
24252;DHT22;12380;51.118;4.176;2022-10-14T02:50:26;14.50;99.90
24252;DHT22;12380;51.118;4.176;2022-10-14T02:52:52;14.60;99.90
24252;DHT22;12380;51.118;4.176;2022-10-14T02:55:17;14.60;99.90
24252;DHT22;12380;51.118;4.176;2022-10-14T02:57:43;14.70;99.90
24252;DHT22;12380;51.118;4.176;2022-10-14T03:00:09;14.60;99.90
24252;DHT22;12380;51.118;4.176;2022-10-14T03:02:37;14.60;99.90
24252;DHT22;12380;51.118;4.176;2022-10-14T03:05:03;14.60;99.90
24252;DHT22;12380;51.118;4.176;2022-10-14T03:07:30;14.50;99.90
24252;DHT22;12380;51.118;4.176;2022-10-14T03:09:55;14.60;99.90
24252;DHT22;12380;51.118;4.176;2022-10-14T03:12:23;14.70;99.90
24252;DHT22;12380;51.118;4.176;2022-10-14T03:14:50;14.70;99.90
24252;DHT22;12380;51.118;4.176;2022-10-14T03:17:16;14.90;99.90
24252;DHT22;12380;51.118;4.176;2022-10-14T03:19:42;14.80;99.90
24252;DHT22;12380;51.118;4.176;2022-10-14T03:22:08;14.70;99.90
24252;DHT22;12380;51.118;4.176;2022-10-14T03:24:33;14.80;99.90
24252;DHT22;12380;51.118;4.176;2022-10-14T03:27:01;14.80;99.90
24252;DHT22;12380;51.118;4.176;2022-10-14T03:29:29;14.90;99.90
24252;DHT22;12380;51.118;4.176;2022-10-14T03:31:55;14.80;99.90
24252;DHT22;12380;51.118;4.176;2022-10-14T03:34:21;14.80;99.90
24252;DHT22;12380;51.118;4.176;2022-10-14T03:36:47;14.90;99.90
24252;DHT22;12380;51.118;4.176;2022-10-14T03:39:13;14.80;99.90
24252;DHT22;12380;51.118;4.176;2022-10-14T03:41:39;14.80;99.90
24252;DHT22;12380;51.118;4.176;2022-10-14T03:44:05;14.80;99.90
24252;DHT22;12380;51.118;4.176;2022-10-14T03:46:31;15.00;99.90
24252;DHT22;12380;51.118;4.176;2022-10-14T03:48:56;14.90;99.90
24252;DHT22;12380;51.118;4.176;2022-10-14T03:51:22;14.80;99.90
24252;DHT22;12380;51.118;4.176;2022-10-14T03:53:48;14.80;99.90
24252;DHT22;12380;51.118;4.176;2022-10-14T03:56:14;14.80;99.90
24252;DHT22;12380;51.118;4.176;2022-10-14T03:58:40;14.90;99.90
24252;DHT22;12380;51.118;4.176;2022-10-14T04:01:06;14.90;99.90
24252;DHT22;12380;51.118;4.176;2022-10-14T04:03:37;15.00;99.90
24252;DHT22;12380;51.118;4.176;2022-10-14T04:06:03;14.90;99.90
24252;DHT22;12380;51.118;4.176;2022-10-14T04:08:31;14.90;99.90
24252;DHT22;12380;51.118;4.176;2022-10-14T04:10:57;14.80;99.90
24252;DHT22;12380;51.118;4.176;2022-10-14T04:13:23;14.70;99.90
24252;DHT22;12380;51.118;4.176;2022-10-14T04:15:48;14.80;99.90
24252;DHT22;12380;51.118;4.176;2022-10-14T04:18:14;14.90;99.90
24252;DHT22;12380;51.118;4.176;2022-10-14T04:20:40;14.90;99.90
24252;DHT22;12380;51.118;4.176;2022-10-14T04:23:10;14.80;99.90
24252;DHT22;12380;51.118;4.176;2022-10-14T04:25:37;14.70;99.90
24252;DHT22;12380;51.118;4.176;2022-10-14T04:28:03;14.70;99.90
24252;DHT22;12380;51.118;4.176;2022-10-14T04:30:29;14.70;99.90
24252;DHT22;12380;51.118;4.176;2022-10-14T04:32:54;14.70;99.90
24252;DHT22;12380;51.118;4.176;2022-10-14T04:35:20;14.60;99.90
24252;DHT22;12380;51.118;4.176;2022-10-14T04:37:46;14.60;99.90
24252;DHT22;12380;51.118;4.176;2022-10-14T04:40:12;14.60;99.90
24252;DHT22;12380;51.118;4.176;2022-10-14T04:42:38;14.70;99.90
24252;DHT22;12380;51.118;4.176;2022-10-14T04:45:04;14.60;99.90
24252;DHT22;12380;51.118;4.176;2022-10-14T04:47:29;14.70;99.90
24252;DHT22;12380;51.118;4.176;2022-10-14T04:49:55;14.70;99.90
24252;DHT22;12380;51.118;4.176;2022-10-14T04:52:20;14.70;99.90
24252;DHT22;12380;51.118;4.176;2022-10-14T04:54:46;14.80;99.90
24252;DHT22;12380;51.118;4.176;2022-10-14T04:57:12;14.70;99.90
24252;DHT22;12380;51.118;4.176;2022-10-14T04:59:37;14.70;99.90
24252;DHT22;12380;51.118;4.176;2022-10-14T05:02:03;14.70;99.90
24252;DHT22;12380;51.118;4.176;2022-10-14T05:04:32;14.80;99.90
24252;DHT22;12380;51.118;4.176;2022-10-14T05:06:57;14.70;99.90
24252;DHT22;12380;51.118;4.176;2022-10-14T05:09:24;14.70;99.90
24252;DHT22;12380;51.118;4.176;2022-10-14T05:11:49;14.70;99.90
24252;DHT22;12380;51.118;4.176;2022-10-14T05:14:15;14.60;99.90
24252;DHT22;12380;51.118;4.176;2022-10-14T05:16:41;14.70;99.90
24252;DHT22;12380;51.118;4.176;2022-10-14T05:19:07;14.80;99.90
24252;DHT22;12380;51.118;4.176;2022-10-14T05:21:33;14.80;99.90
24252;DHT22;12380;51.118;4.176;2022-10-14T05:23:59;14.80;99.90
24252;DHT22;12380;51.118;4.176;2022-10-14T05:26:25;14.80;99.90
24252;DHT22;12380;51.118;4.176;2022-10-14T05:28:51;14.70;99.90
24252;DHT22;12380;51.118;4.176;2022-10-14T05:31:17;14.80;99.90
24252;DHT22;12380;51.118;4.176;2022-10-14T05:33:43;14.80;99.90
24252;DHT22;12380;51.118;4.176;2022-10-14T05:36:08;14.80;99.90
24252;DHT22;12380;51.118;4.176;2022-10-14T05:38:36;14.60;99.90
24252;DHT22;12380;51.118;4.176;2022-10-14T05:41:02;14.70;99.90
24252;DHT22;12380;51.118;4.176;2022-10-14T05:43:28;14.70;99.90
24252;DHT22;12380;51.118;4.176;2022-10-14T05:45:53;14.60;99.90
24252;DHT22;12380;51.118;4.176;2022-10-14T05:48:20;14.70;99.90
24252;DHT22;12380;51.118;4.176;2022-10-14T05:50:45;14.60;99.90
24252;DHT22;12380;51.118;4.176;2022-10-14T05:53:11;14.50;99.90
24252;DHT22;12380;51.118;4.176;2022-10-14T05:55:37;14.50;99.90
24252;DHT22;12380;51.118;4.176;2022-10-14T05:58:02;14.60;99.90
24252;DHT22;12380;51.118;4.176;2022-10-14T06:00:28;14.60;99.90
24252;DHT22;12380;51.118;4.176;2022-10-14T06:02:57;14.50;99.90
24252;DHT22;12380;51.118;4.176;2022-10-14T06:05:23;14.60;99.90
24252;DHT22;12380;51.118;4.176;2022-10-14T06:07:52;14.50;99.90
24252;DHT22;12380;51.118;4.176;2022-10-14T06:10:17;14.50;99.90
24252;DHT22;12380;51.118;4.176;2022-10-14T06:12:44;14.50;99.90
24252;DHT22;12380;51.118;4.176;2022-10-14T06:15:09;14.40;99.90
24252;DHT22;12380;51.118;4.176;2022-10-14T06:17:35;14.40;99.90
24252;DHT22;12380;51.118;4.176;2022-10-14T06:20:00;14.40;99.90
24252;DHT22;12380;51.118;4.176;2022-10-14T06:22:27;14.50;99.90
24252;DHT22;12380;51.118;4.176;2022-10-14T06:24:53;14.50;99.90
24252;DHT22;12380;51.118;4.176;2022-10-14T06:27:19;14.60;99.90
24252;DHT22;12380;51.118;4.176;2022-10-14T06:29:45;14.50;99.90
24252;DHT22;12380;51.118;4.176;2022-10-14T06:32:11;14.50;99.90
24252;DHT22;12380;51.118;4.176;2022-10-14T06:34:36;14.50;99.90
24252;DHT22;12380;51.118;4.176;2022-10-14T06:37:02;14.50;99.90
24252;DHT22;12380;51.118;4.176;2022-10-14T06:39:27;14.50;99.90
24252;DHT22;12380;51.118;4.176;2022-10-14T06:41:54;14.50;99.90
24252;DHT22;12380;51.118;4.176;2022-10-14T06:44:20;14.50;99.90
24252;DHT22;12380;51.118;4.176;2022-10-14T06:46:46;14.50;99.90
24252;DHT22;12380;51.118;4.176;2022-10-14T06:49:12;14.60;99.90
24252;DHT22;12380;51.118;4.176;2022-10-14T06:51:38;14.50;99.90
24252;DHT22;12380;51.118;4.176;2022-10-14T06:54:04;14.60;99.90
24252;DHT22;12380;51.118;4.176;2022-10-14T06:56:31;14.80;99.90
24252;DHT22;12380;51.118;4.176;2022-10-14T06:58:57;14.70;99.90
24252;DHT22;12380;51.118;4.176;2022-10-14T07:01:23;14.70;99.90
24252;DHT22;12380;51.118;4.176;2022-10-14T07:03:49;14.50;99.90
24252;DHT22;12380;51.118;4.176;2022-10-14T07:06:14;14.60;99.90
24252;DHT22;12380;51.118;4.176;2022-10-14T07:08:40;14.60;99.90
24252;DHT22;12380;51.118;4.176;2022-10-14T07:11:06;14.60;99.90
24252;DHT22;12380;51.118;4.176;2022-10-14T07:13:37;14.60;99.90
24252;DHT22;12380;51.118;4.176;2022-10-14T07:16:04;14.60;99.90
24252;DHT22;12380;51.118;4.176;2022-10-14T07:18:30;14.50;99.90
24252;DHT22;12380;51.118;4.176;2022-10-14T07:21:00;14.50;99.90
24252;DHT22;12380;51.118;4.176;2022-10-14T07:23:25;14.60;99.90
24252;DHT22;12380;51.118;4.176;2022-10-14T07:25:54;14.60;99.90
24252;DHT22;12380;51.118;4.176;2022-10-14T07:28:19;14.60;99.90
24252;DHT22;12380;51.118;4.176;2022-10-14T07:30:45;14.70;99.90
24252;DHT22;12380;51.118;4.176;2022-10-14T07:33:10;14.70;99.90
24252;DHT22;12380;51.118;4.176;2022-10-14T07:35:36;14.60;99.90
24252;DHT22;12380;51.118;4.176;2022-10-14T07:38:03;14.60;99.90
24252;DHT22;12380;51.118;4.176;2022-10-14T07:40:28;14.60;99.90
24252;DHT22;12380;51.118;4.176;2022-10-14T07:42:54;14.70;99.90
24252;DHT22;12380;51.118;4.176;2022-10-14T07:45:20;14.70;99.90
24252;DHT22;12380;51.118;4.176;2022-10-14T07:47:46;14.70;99.90
24252;DHT22;12380;51.118;4.176;2022-10-14T07:50:15;14.70;99.90
24252;DHT22;12380;51.118;4.176;2022-10-14T07:52:41;14.60;99.90
24252;DHT22;12380;51.118;4.176;2022-10-14T07:55:07;14.70;99.90
24252;DHT22;12380;51.118;4.176;2022-10-14T07:57:33;14.70;99.90
24252;DHT22;12380;51.118;4.176;2022-10-14T07:59:59;14.80;99.90
24252;DHT22;12380;51.118;4.176;2022-10-14T08:02:24;14.80;99.90
24252;DHT22;12380;51.118;4.176;2022-10-14T08:04:51;14.80;99.90
24252;DHT22;12380;51.118;4.176;2022-10-14T08:07:17;14.90;99.90
24252;DHT22;12380;51.118;4.176;2022-10-14T08:09:45;15.00;99.90
24252;DHT22;12380;51.118;4.176;2022-10-14T08:12:12;15.00;99.90
24252;DHT22;12380;51.118;4.176;2022-10-14T08:14:40;15.00;99.90
24252;DHT22;12380;51.118;4.176;2022-10-14T08:17:06;15.00;99.90
24252;DHT22;12380;51.118;4.176;2022-10-14T08:19:31;15.10;99.90
24252;DHT22;12380;51.118;4.176;2022-10-14T08:21:57;15.10;99.90
24252;DHT22;12380;51.118;4.176;2022-10-14T08:24:25;15.10;99.90
24252;DHT22;12380;51.118;4.176;2022-10-14T08:26:52;15.10;99.90
24252;DHT22;12380;51.118;4.176;2022-10-14T08:29:18;15.10;99.90
24252;DHT22;12380;51.118;4.176;2022-10-14T08:31:49;15.10;99.90
24252;DHT22;12380;51.118;4.176;2022-10-14T08:34:15;15.20;99.90
24252;DHT22;12380;51.118;4.176;2022-10-14T08:36:46;15.30;99.90
24252;DHT22;12380;51.118;4.176;2022-10-14T08:39:12;15.40;99.90
24252;DHT22;12380;51.118;4.176;2022-10-14T08:44:33;15.40;99.90
24252;DHT22;12380;51.118;4.176;2022-10-14T08:47:02;15.40;99.90
24252;DHT22;12380;51.118;4.176;2022-10-14T08:49:34;15.40;99.90
24252;DHT22;12380;51.118;4.176;2022-10-14T08:52:03;15.40;99.90
24252;DHT22;12380;51.118;4.176;2022-10-14T08:56:59;15.40;99.90
24252;DHT22;12380;51.118;4.176;2022-10-14T08:59:27;15.40;99.90
24252;DHT22;12380;51.118;4.176;2022-10-14T09:01:53;15.40;99.90
24252;DHT22;12380;51.118;4.176;2022-10-14T09:04:21;15.50;99.90
24252;DHT22;12380;51.118;4.176;2022-10-14T09:06:47;15.70;99.90
24252;DHT22;12380;51.118;4.176;2022-10-14T09:09:22;15.70;99.90
24252;DHT22;12380;51.118;4.176;2022-10-14T09:11:55;15.70;99.90
24252;DHT22;12380;51.118;4.176;2022-10-14T09:14:22;15.70;99.90
24252;DHT22;12380;51.118;4.176;2022-10-14T09:16:51;15.60;99.90
24252;DHT22;12380;51.118;4.176;2022-10-14T09:19:21;15.40;99.90
24252;DHT22;12380;51.118;4.176;2022-10-14T09:21:54;15.50;99.90
24252;DHT22;12380;51.118;4.176;2022-10-14T09:24:23;15.50;99.90
24252;DHT22;12380;51.118;4.176;2022-10-14T09:26:50;15.60;99.90
24252;DHT22;12380;51.118;4.176;2022-10-14T09:31:43;15.40;99.90
24252;DHT22;12380;51.118;4.176;2022-10-14T09:34:11;15.40;99.90
24252;DHT22;12380;51.118;4.176;2022-10-14T09:36:40;15.30;99.90
24252;DHT22;12380;51.118;4.176;2022-10-14T09:39:09;15.40;99.90
24252;DHT22;12380;51.118;4.176;2022-10-14T09:41:35;15.50;99.90
24252;DHT22;12380;51.118;4.176;2022-10-14T09:44:12;15.50;99.90
24252;DHT22;12380;51.118;4.176;2022-10-14T09:46:38;15.50;99.90
24252;DHT22;12380;51.118;4.176;2022-10-14T09:49:04;15.60;99.90
24252;DHT22;12380;51.118;4.176;2022-10-14T09:51:31;15.60;99.90
24252;DHT22;12380;51.118;4.176;2022-10-14T09:53:58;15.80;99.90
24252;DHT22;12380;51.118;4.176;2022-10-14T09:56:26;15.90;99.90
24252;DHT22;12380;51.118;4.176;2022-10-14T09:58:56;15.80;99.90
24252;DHT22;12380;51.118;4.176;2022-10-14T10:01:31;15.80;99.90
24252;DHT22;12380;51.118;4.176;2022-10-14T10:04:22;15.80;99.90
24252;DHT22;12380;51.118;4.176;2022-10-14T10:06:50;15.70;99.90
24252;DHT22;12380;51.118;4.176;2022-10-14T10:09:17;15.70;99.90
24252;DHT22;12380;51.118;4.176;2022-10-14T10:11:43;15.70;99.90
24252;DHT22;12380;51.118;4.176;2022-10-14T10:16:42;15.80;99.90
24252;DHT22;12380;51.118;4.176;2022-10-14T10:19:18;15.70;99.90
24252;DHT22;12380;51.118;4.176;2022-10-14T10:21:45;15.70;99.90
24252;DHT22;12380;51.118;4.176;2022-10-14T10:24:17;15.60;99.90
24252;DHT22;12380;51.118;4.176;2022-10-14T10:26:44;15.60;99.90
24252;DHT22;12380;51.118;4.176;2022-10-14T10:29:22;15.60;99.90
24252;DHT22;12380;51.118;4.176;2022-10-14T10:31:55;15.70;99.90
24252;DHT22;12380;51.118;4.176;2022-10-14T10:39:45;15.80;99.90
24252;DHT22;12380;51.118;4.176;2022-10-14T10:47:29;16.20;99.90
24252;DHT22;12380;51.118;4.176;2022-10-14T10:50:04;16.40;99.90
24252;DHT22;12380;51.118;4.176;2022-10-14T10:55:25;16.10;99.90
24252;DHT22;12380;51.118;4.176;2022-10-14T11:00:19;16.30;99.90
24252;DHT22;12380;51.118;4.176;2022-10-14T11:03:00;16.30;99.90
24252;DHT22;12380;51.118;4.176;2022-10-14T11:05:42;16.30;99.90
24252;DHT22;12380;51.118;4.176;2022-10-14T11:08:57;16.50;99.90
24252;DHT22;12380;51.118;4.176;2022-10-14T11:11:37;16.60;99.90
24252;DHT22;12380;51.118;4.176;2022-10-14T11:25:15;16.70;99.90
24252;DHT22;12380;51.118;4.176;2022-10-14T11:27:44;16.80;99.90
24252;DHT22;12380;51.118;4.176;2022-10-14T11:30:14;16.70;99.90
24252;DHT22;12380;51.118;4.176;2022-10-14T11:35:41;16.90;99.90
24252;DHT22;12380;51.118;4.176;2022-10-14T11:40:56;17.00;99.90
24252;DHT22;12380;51.118;4.176;2022-10-14T11:46:01;17.80;99.90
24252;DHT22;12380;51.118;4.176;2022-10-14T11:51:35;17.70;99.90
24252;DHT22;12380;51.118;4.176;2022-10-14T11:54:10;17.70;99.90
24252;DHT22;12380;51.118;4.176;2022-10-14T12:02:18;17.90;99.90
24252;DHT22;12380;51.118;4.176;2022-10-14T12:04:50;17.80;99.90
24252;DHT22;12380;51.118;4.176;2022-10-14T12:07:19;17.80;99.90
24252;DHT22;12380;51.118;4.176;2022-10-14T12:09:51;17.70;99.90
24252;DHT22;12380;51.118;4.176;2022-10-14T12:12:21;17.60;99.90
24252;DHT22;12380;51.118;4.176;2022-10-14T12:14:51;17.70;99.90
24252;DHT22;12380;51.118;4.176;2022-10-14T12:17:41;17.80;99.90
24252;DHT22;12380;51.118;4.176;2022-10-14T12:20:18;18.10;99.90
24252;DHT22;12380;51.118;4.176;2022-10-14T12:22:46;18.10;99.90
24252;DHT22;12380;51.118;4.176;2022-10-14T12:25:14;18.30;99.90
24252;DHT22;12380;51.118;4.176;2022-10-14T12:27:41;18.20;99.90
24252;DHT22;12380;51.118;4.176;2022-10-14T12:30:27;18.30;99.90
24252;DHT22;12380;51.118;4.176;2022-10-14T12:32:58;18.40;99.90
24252;DHT22;12380;51.118;4.176;2022-10-14T12:38:12;18.60;99.90
24252;DHT22;12380;51.118;4.176;2022-10-14T12:40:38;18.60;99.90
24252;DHT22;12380;51.118;4.176;2022-10-14T12:43:14;18.70;99.90
24252;DHT22;12380;51.118;4.176;2022-10-14T12:45:49;18.60;99.90
24252;DHT22;12380;51.118;4.176;2022-10-14T12:48:16;18.50;99.90
24252;DHT22;12380;51.118;4.176;2022-10-14T12:50:46;18.50;99.90
24252;DHT22;12380;51.118;4.176;2022-10-14T12:53:21;18.40;99.90
24252;DHT22;12380;51.118;4.176;2022-10-14T12:55:50;18.50;99.90
24252;DHT22;12380;51.118;4.176;2022-10-14T12:58:20;18.70;99.90
24252;DHT22;12380;51.118;4.176;2022-10-14T13:00:47;18.80;99.90
24252;DHT22;12380;51.118;4.176;2022-10-14T13:03:18;18.90;99.90
24252;DHT22;12380;51.118;4.176;2022-10-14T13:05:45;18.70;99.90
24252;DHT22;12380;51.118;4.176;2022-10-14T13:20:55;18.20;99.90
24252;DHT22;12380;51.118;4.176;2022-10-14T13:25:47;18.70;99.90
24252;DHT22;12380;51.118;4.176;2022-10-14T13:28:19;18.80;99.90
24252;DHT22;12380;51.118;4.176;2022-10-14T13:33:36;19.00;99.90
24252;DHT22;12380;51.118;4.176;2022-10-14T13:38:30;18.80;99.90
24252;DHT22;12380;51.118;4.176;2022-10-14T13:40:57;18.70;99.90
24252;DHT22;12380;51.118;4.176;2022-10-14T13:43:41;18.70;99.90
24252;DHT22;12380;51.118;4.176;2022-10-14T13:46:10;18.50;99.90
24252;DHT22;12380;51.118;4.176;2022-10-14T13:48:38;18.70;99.90
24252;DHT22;12380;51.118;4.176;2022-10-14T13:51:17;18.60;99.90
24252;DHT22;12380;51.118;4.176;2022-10-14T13:53:48;18.50;99.90
24252;DHT22;12380;51.118;4.176;2022-10-14T13:56:18;18.40;99.90
24252;DHT22;12380;51.118;4.176;2022-10-14T13:58:45;18.30;99.90
24252;DHT22;12380;51.118;4.176;2022-10-14T14:01:10;18.10;99.90
24252;DHT22;12380;51.118;4.176;2022-10-14T14:03:40;17.90;99.90
24252;DHT22;12380;51.118;4.176;2022-10-14T14:06:14;18.00;99.90
24252;DHT22;12380;51.118;4.176;2022-10-14T14:08:54;18.20;99.90
24252;DHT22;12380;51.118;4.176;2022-10-14T14:11:30;18.10;99.90
24252;DHT22;12380;51.118;4.176;2022-10-14T14:14:15;18.10;99.90
24252;DHT22;12380;51.118;4.176;2022-10-14T14:19:19;18.50;99.90
24252;DHT22;12380;51.118;4.176;2022-10-14T14:21:45;18.50;99.90
24252;DHT22;12380;51.118;4.176;2022-10-14T14:24:32;18.60;99.90
24252;DHT22;12380;51.118;4.176;2022-10-14T14:26:59;18.60;99.90
24252;DHT22;12380;51.118;4.176;2022-10-14T14:29:26;18.60;99.90
24252;DHT22;12380;51.118;4.176;2022-10-14T14:31:52;18.30;99.90
24252;DHT22;12380;51.118;4.176;2022-10-14T14:34:41;18.30;99.90
24252;DHT22;12380;51.118;4.176;2022-10-14T14:37:11;18.20;99.90
24252;DHT22;12380;51.118;4.176;2022-10-14T14:39:38;18.20;99.90
24252;DHT22;12380;51.118;4.176;2022-10-14T14:42:04;18.00;99.90
24252;DHT22;12380;51.118;4.176;2022-10-14T14:44:32;18.00;99.90
24252;DHT22;12380;51.118;4.176;2022-10-14T14:46:58;18.00;99.90
24252;DHT22;12380;51.118;4.176;2022-10-14T14:49:31;18.00;99.90
24252;DHT22;12380;51.118;4.176;2022-10-14T14:51:58;17.90;99.90
24252;DHT22;12380;51.118;4.176;2022-10-14T14:54:25;17.60;99.90
24252;DHT22;12380;51.118;4.176;2022-10-14T14:59:25;17.80;99.90
24252;DHT22;12380;51.118;4.176;2022-10-14T15:01:51;17.70;99.90
24252;DHT22;12380;51.118;4.176;2022-10-14T15:04:18;17.70;99.90
24252;DHT22;12380;51.118;4.176;2022-10-14T15:07:00;17.50;99.90
24252;DHT22;12380;51.118;4.176;2022-10-14T15:11:55;17.70;99.90
24252;DHT22;12380;51.118;4.176;2022-10-14T15:22:40;18.20;99.90
24252;DHT22;12380;51.118;4.176;2022-10-14T15:32:45;18.20;99.90
24252;DHT22;12380;51.118;4.176;2022-10-14T15:35:11;18.20;99.90
24252;DHT22;12380;51.118;4.176;2022-10-14T15:37:37;18.20;99.90
24252;DHT22;12380;51.118;4.176;2022-10-14T15:40:04;18.20;99.90
24252;DHT22;12380;51.118;4.176;2022-10-14T15:42:36;18.10;99.90
24252;DHT22;12380;51.118;4.176;2022-10-14T15:45:03;18.10;99.90
24252;DHT22;12380;51.118;4.176;2022-10-14T15:47:28;18.00;99.90
24252;DHT22;12380;51.118;4.176;2022-10-14T15:49:56;18.10;99.90
24252;DHT22;12380;51.118;4.176;2022-10-14T15:52:22;17.90;99.90
24252;DHT22;12380;51.118;4.176;2022-10-14T15:54:50;17.90;99.90
24252;DHT22;12380;51.118;4.176;2022-10-14T15:57:18;17.90;99.90
24252;DHT22;12380;51.118;4.176;2022-10-14T15:59:46;18.00;99.90
24252;DHT22;12380;51.118;4.176;2022-10-14T16:02:20;18.00;99.90
24252;DHT22;12380;51.118;4.176;2022-10-14T16:04:48;18.00;99.90
24252;DHT22;12380;51.118;4.176;2022-10-14T16:07:14;17.90;99.90
24252;DHT22;12380;51.118;4.176;2022-10-14T16:09:40;17.90;99.90
24252;DHT22;12380;51.118;4.176;2022-10-14T16:12:09;17.90;99.90
24252;DHT22;12380;51.118;4.176;2022-10-14T16:14:36;17.80;99.90
24252;DHT22;12380;51.118;4.176;2022-10-14T16:17:04;17.70;99.90
24252;DHT22;12380;51.118;4.176;2022-10-14T16:19:29;17.60;99.90
24252;DHT22;12380;51.118;4.176;2022-10-14T16:21:56;17.50;99.90
24252;DHT22;12380;51.118;4.176;2022-10-14T16:24:24;17.50;99.90
24252;DHT22;12380;51.118;4.176;2022-10-14T16:26:50;17.40;99.90
24252;DHT22;12380;51.118;4.176;2022-10-14T16:29:16;17.40;99.90
24252;DHT22;12380;51.118;4.176;2022-10-14T16:31:43;17.30;99.90
24252;DHT22;12380;51.118;4.176;2022-10-14T16:34:11;17.30;99.90
24252;DHT22;12380;51.118;4.176;2022-10-14T16:36:37;17.20;99.90
24252;DHT22;12380;51.118;4.176;2022-10-14T16:39:03;17.10;99.90
24252;DHT22;12380;51.118;4.176;2022-10-14T16:41:28;17.00;99.90
24252;DHT22;12380;51.118;4.176;2022-10-14T16:43:55;16.90;99.90
24252;DHT22;12380;51.118;4.176;2022-10-14T16:46:20;16.80;99.90
24252;DHT22;12380;51.118;4.176;2022-10-14T16:49:08;16.80;99.90
24252;DHT22;12380;51.118;4.176;2022-10-14T16:51:34;16.80;99.90
24252;DHT22;12380;51.118;4.176;2022-10-14T16:54:01;16.70;99.90
24252;DHT22;12380;51.118;4.176;2022-10-14T16:56:29;16.60;99.90
24252;DHT22;12380;51.118;4.176;2022-10-14T16:59:13;16.60;99.90
24252;DHT22;12380;51.118;4.176;2022-10-14T17:01:40;16.50;99.90
24252;DHT22;12380;51.118;4.176;2022-10-14T17:04:06;16.40;99.90
24252;DHT22;12380;51.118;4.176;2022-10-14T17:06:33;16.40;99.90
24252;DHT22;12380;51.118;4.176;2022-10-14T17:08:59;16.30;99.90
24252;DHT22;12380;51.118;4.176;2022-10-14T17:11:24;16.30;99.90
24252;DHT22;12380;51.118;4.176;2022-10-14T17:13:53;16.20;99.90
24252;DHT22;12380;51.118;4.176;2022-10-14T17:16:18;16.20;99.90
24252;DHT22;12380;51.118;4.176;2022-10-14T17:18:47;16.10;99.90
24252;DHT22;12380;51.118;4.176;2022-10-14T17:21:14;16.10;99.90
24252;DHT22;12380;51.118;4.176;2022-10-14T17:23:40;16.10;99.90
24252;DHT22;12380;51.118;4.176;2022-10-14T17:26:07;16.00;99.90
24252;DHT22;12380;51.118;4.176;2022-10-14T17:28:33;15.90;99.90
24252;DHT22;12380;51.118;4.176;2022-10-14T17:30:59;15.90;99.90
24252;DHT22;12380;51.118;4.176;2022-10-14T17:33:45;15.90;99.90
24252;DHT22;12380;51.118;4.176;2022-10-14T17:36:21;15.90;99.90